createdAt,value
2018-09-08T00:00:43.472Z,14.33
2018-09-08T00:03:13.209Z,20.03
2018-09-08T00:05:43.945Z,18.37
2018-09-08T00:08:22.617Z,18.73
2018-09-08T00:10:52.141Z,17.50
2018-09-08T00:13:21.663Z,14.63
2018-09-08T00:15:55.888Z,15.10
2018-09-08T00:18:30.503Z,11.87
2018-09-08T00:21:05.521Z,14.83
2018-09-08T00:23:39.620Z,10.10
2018-09-08T00:26:13.728Z,15.87
2018-09-08T00:28:47.284Z,11.97
2018-09-08T00:31:19.657Z,15.63
2018-09-08T00:33:49.884Z,12.17
2018-09-08T00:36:20.574Z,13.03
2018-09-08T00:38:49.692Z,14.17
2018-09-08T00:41:20.601Z,14.27
2018-09-08T00:43:50.039Z,12.70
2018-09-08T00:46:19.460Z,14.33
2018-09-08T00:48:48.367Z,14.30
2018-09-08T00:51:17.659Z,13.47
2018-09-08T00:53:48.292Z,14.47
2018-09-08T00:56:20.004Z,15.53
2018-09-08T00:58:54.919Z,15.60
2018-09-08T01:01:24.811Z,12.57
2018-09-08T01:03:54.717Z,17.37
2018-09-08T01:06:24.183Z,11.50
2018-09-08T01:08:53.535Z,15.83
2018-09-08T01:11:23.575Z,14.63
2018-09-08T01:13:52.475Z,13.40
2018-09-08T01:16:22.373Z,16.13
2018-09-08T01:18:51.879Z,12.70
2018-09-08T01:21:21.223Z,12.67
2018-09-08T01:23:53.643Z,12.37
2018-09-08T01:26:24.040Z,14.60
2018-09-08T01:28:53.457Z,11.73
2018-09-08T01:31:23.751Z,14.23
2018-09-08T01:33:56.716Z,11.00
2018-09-08T01:36:27.014Z,14.57
2018-09-08T01:38:57.446Z,17.63
2018-09-08T01:41:26.336Z,14.80
2018-09-08T01:43:55.919Z,14.83
2018-09-08T01:46:26.181Z,14.03
2018-09-08T01:48:56.035Z,12.80
2018-09-08T01:51:26.353Z,13.27
2018-09-08T01:53:55.751Z,12.40
2018-09-08T01:56:26.106Z,11.50
2018-09-08T01:58:56.051Z,13.00
2018-09-08T02:01:24.860Z,11.33
2018-09-08T02:03:53.905Z,10.87
2018-09-08T02:06:22.993Z,12.20
2018-09-08T02:08:52.681Z,15.33
2018-09-08T02:11:23.172Z,12.03
2018-09-08T02:13:52.360Z,13.03
2018-09-08T02:16:21.939Z,15.90
2018-09-08T02:18:50.811Z,10.80
2018-09-08T02:21:19.831Z,12.90
2018-09-08T02:23:49.010Z,14.80
2018-09-08T02:26:17.942Z,12.03
2018-09-08T02:28:47.108Z,11.07
2018-09-08T02:31:17.159Z,13.37
2018-09-08T02:33:45.973Z,15.80
2018-09-08T02:36:14.805Z,12.17
2018-09-08T02:38:44.233Z,11.03
2018-09-08T02:41:13.783Z,11.97
2018-09-08T02:43:42.974Z,14.93
2018-09-08T02:46:12.164Z,9.63
2018-09-08T02:48:42.019Z,13.33
2018-09-08T02:51:10.341Z,11.57
2018-09-08T02:53:38.104Z,14.33
2018-09-08T02:56:05.992Z,10.90
2018-09-08T02:58:33.532Z,15.43
2018-09-08T03:01:01.813Z,12.90
2018-09-08T03:03:29.753Z,12.67
2018-09-08T03:05:58.076Z,13.80
2018-09-08T03:08:25.648Z,13.30
2018-09-08T03:10:53.812Z,12.10
2018-09-08T03:13:21.341Z,13.40
2018-09-08T03:15:49.217Z,11.80
2018-09-08T03:18:16.750Z,11.23
2018-09-08T03:20:44.288Z,10.67
2018-09-08T03:23:11.865Z,13.80
2018-09-08T03:25:39.389Z,10.80
2018-09-08T03:28:08.096Z,12.83
2018-09-08T03:30:36.571Z,14.17
2018-09-08T03:33:05.062Z,10.70
2018-09-08T03:35:33.829Z,16.53
2018-09-08T03:38:02.112Z,13.63
2018-09-08T03:40:30.420Z,11.70
2018-09-08T03:42:58.220Z,13.07
2018-09-08T03:45:26.272Z,10.93
2018-09-08T03:47:53.856Z,14.53
2018-09-08T03:50:21.384Z,10.83
2018-09-08T03:52:49.577Z,11.10
2018-09-08T03:55:17.798Z,12.40
2018-09-08T03:57:45.340Z,14.50
2018-09-08T04:00:14.354Z,17.83
2018-09-08T04:02:43.911Z,13.17
2018-09-08T04:05:13.784Z,13.13
2018-09-08T04:07:43.402Z,9.83
2018-09-08T04:10:12.201Z,12.07
2018-09-08T04:12:41.160Z,10.67
2018-09-08T04:15:11.129Z,15.67
2018-09-08T04:17:41.559Z,10.47
2018-09-08T04:20:11.235Z,13.37
2018-09-08T04:22:41.536Z,11.23
2018-09-08T04:25:11.693Z,14.03
2018-09-08T04:27:42.299Z,13.67
2018-09-08T04:30:11.815Z,10.37
2018-09-08T04:32:41.095Z,9.93
2018-09-08T04:35:15.462Z,10.67
2018-09-08T04:37:44.399Z,9.90
2018-09-08T04:40:14.206Z,15.50
2018-09-08T04:42:45.675Z,16.03
2018-09-08T04:45:14.893Z,12.50
2018-09-08T04:47:44.941Z,13.83
2018-09-08T04:50:13.948Z,12.50
2018-09-08T04:52:44.885Z,11.60
2018-09-08T04:55:14.069Z,19.90
2018-09-08T04:57:44.224Z,19.23
2018-09-08T05:00:20.568Z,17.70
2018-09-08T05:02:50.631Z,22.70
2018-09-08T05:05:21.964Z,18.27
2018-09-08T05:07:51.650Z,29.17
2018-09-08T05:10:21.340Z,22.80
2018-09-08T05:12:50.386Z,18.50
2018-09-08T05:15:20.024Z,22.07
2018-09-08T05:17:49.775Z,23.43
2018-09-08T05:20:18.613Z,23.43
2018-09-08T05:22:47.473Z,29.80
2018-09-08T05:25:16.299Z,24.77
2018-09-08T05:27:46.424Z,33.83
2018-09-08T05:30:18.159Z,32.10
2018-09-08T05:32:48.669Z,30.20
2018-09-08T05:35:17.508Z,35.43
2018-09-08T05:37:46.359Z,35.63
2018-09-08T05:40:15.160Z,34.87
2018-09-08T05:42:43.995Z,33.33
2018-09-08T05:45:12.907Z,44.13
2018-09-08T05:47:41.739Z,45.73
2018-09-08T05:50:10.535Z,54.77
2018-09-08T05:52:39.456Z,51.87
2018-09-08T05:55:08.296Z,44.80
2018-09-08T05:57:37.146Z,41.67
2018-09-08T06:00:05.988Z,41.27
2018-09-08T06:02:34.800Z,44.07
2018-09-08T06:05:03.648Z,50.03
2018-09-08T06:07:32.500Z,41.97
2018-09-08T06:10:01.427Z,36.47
2018-09-08T06:12:30.273Z,41.43
2018-09-08T06:14:59.161Z,33.13
2018-09-08T06:17:28.055Z,38.30
2018-09-08T06:19:56.888Z,47.57
2018-09-08T06:22:25.765Z,38.77
2018-09-08T06:24:54.575Z,40.33
2018-09-08T06:27:23.404Z,37.37
2018-09-08T06:29:52.288Z,41.10
2018-09-08T06:32:21.099Z,39.47
2018-09-08T06:34:49.965Z,33.03
2018-09-08T06:37:18.875Z,40.97
2018-09-08T06:39:47.708Z,39.17
2018-09-08T06:42:16.502Z,39.43
2018-09-08T06:44:45.378Z,42.13
2018-09-08T06:47:14.199Z,34.93
2018-09-08T06:49:43.040Z,44.13
2018-09-08T06:52:11.914Z,38.07
2018-09-08T06:54:40.709Z,37.40
2018-09-08T06:57:09.511Z,39.17
2018-09-08T06:59:38.331Z,38.40
2018-09-08T07:02:07.131Z,28.60
2018-09-08T07:04:36.013Z,38.83
2018-09-08T07:07:07.946Z,34.43
2018-09-08T07:09:36.747Z,34.83
2018-09-08T07:12:05.699Z,32.50
2018-09-08T07:14:34.545Z,39.27
2018-09-08T07:17:03.457Z,39.60
2018-09-08T07:19:32.260Z,40.67
2018-09-08T07:22:01.117Z,37.87
2018-09-08T07:24:29.913Z,38.10
2018-09-08T07:26:58.712Z,33.30
2018-09-08T07:29:27.612Z,36.27
2018-09-08T07:31:56.418Z,39.97
2018-09-08T07:34:25.236Z,35.57
2018-09-08T07:36:54.128Z,34.57
2018-09-08T07:39:22.923Z,36.53
2018-09-08T07:41:51.756Z,36.53
2018-09-08T07:44:20.595Z,38.73
2018-09-08T07:46:49.407Z,39.73
2018-09-08T07:49:18.216Z,44.93
2018-09-08T07:51:47.111Z,39.63
2018-09-08T07:54:15.919Z,34.20
2018-09-08T07:56:44.722Z,43.07
2018-09-08T07:59:13.588Z,39.90
2018-09-08T08:01:42.419Z,39.37
2018-09-08T08:04:11.200Z,39.30
2018-09-08T08:06:40.122Z,36.53
2018-09-08T08:09:09.580Z,36.30
2018-09-08T08:11:38.372Z,35.40
2018-09-08T08:14:07.351Z,33.60
2018-09-08T08:16:36.175Z,36.23
2018-09-08T08:19:04.967Z,33.30
2018-09-08T08:21:33.807Z,37.70
2018-09-08T08:24:02.616Z,37.00
2018-09-08T08:26:31.415Z,33.70
2018-09-08T08:29:00.825Z,33.30
2018-09-08T08:31:29.626Z,29.30
2018-09-08T08:33:58.427Z,30.70
2018-09-08T08:36:27.296Z,34.50
2018-09-08T08:38:56.124Z,30.27
2018-09-08T08:41:24.944Z,34.90
2018-09-08T08:43:53.833Z,23.77
2018-09-08T08:46:22.627Z,29.60
2018-09-08T08:48:51.440Z,33.93
2018-09-08T08:51:31.176Z,30.23
2018-09-08T08:54:12.752Z,29.60
2018-09-08T08:56:41.638Z,29.80
2018-09-08T08:59:12.483Z,28.80
2018-09-08T09:01:42.247Z,30.33
2018-09-08T09:04:12.174Z,32.40
2018-09-08T09:06:41.724Z,28.97
2018-09-08T09:09:15.805Z,30.93
2018-09-08T09:11:45.412Z,28.47
2018-09-08T09:14:16.013Z,29.30
2018-09-08T09:16:45.426Z,25.33
2018-09-08T09:19:38.749Z,27.37
2018-09-08T09:22:19.893Z,25.57
2018-09-08T09:25:01.029Z,24.97
2018-09-08T09:27:30.966Z,28.03
2018-09-08T09:30:00.215Z,23.70
2018-09-08T09:32:29.894Z,23.57
2018-09-08T09:34:58.777Z,29.27
2018-09-08T09:37:27.755Z,23.63
2018-09-08T09:39:57.386Z,24.53
2018-09-08T09:42:26.311Z,21.63
2018-09-08T09:44:55.156Z,26.67
2018-09-08T09:47:24.020Z,28.23
2018-09-08T09:49:52.980Z,29.00
2018-09-08T09:52:22.424Z,26.00
2018-09-08T09:54:51.448Z,27.67
2018-09-08T09:57:20.343Z,22.73
2018-09-08T09:59:49.203Z,29.20
2018-09-08T10:02:48.297Z,27.97
2018-09-08T10:05:18.647Z,27.20
2018-09-08T10:07:47.935Z,21.33
2018-09-08T10:10:19.277Z,23.10
2018-09-08T10:12:49.460Z,27.77
2018-09-08T10:15:18.996Z,26.37
2018-09-08T10:17:49.168Z,24.50
2018-09-08T10:20:19.608Z,20.80
2018-09-08T10:22:48.485Z,23.73
2018-09-08T10:25:18.523Z,19.83
2018-09-08T10:28:52.812Z,25.63
2018-09-08T10:31:21.717Z,29.63
2018-09-08T10:33:50.658Z,26.17
2018-09-08T10:36:19.548Z,24.65
2018-09-08T10:38:48.407Z,47.53
2018-09-08T10:41:17.250Z,40.08
2018-09-08T10:43:46.175Z,35.20
2018-09-08T10:46:15.119Z,30.23
2018-09-08T10:48:44.001Z,34.53
2018-09-08T10:53:28.774Z,28.02
2018-09-08T10:55:57.735Z,27.25
2018-09-08T10:58:26.656Z,25.02
2018-09-08T11:00:55.590Z,24.40
2018-09-08T11:03:24.428Z,24.98
2018-09-08T11:05:53.386Z,21.40
2018-09-08T11:08:22.311Z,19.02
2018-09-08T11:10:51.147Z,24.90
2018-09-08T11:13:19.988Z,22.95
2018-09-08T11:15:49.068Z,26.07
2018-09-08T11:18:17.940Z,25.40
2018-09-08T11:20:47.091Z,27.58
2018-09-08T11:23:16.054Z,28.47
2018-09-08T11:25:44.978Z,24.45
2018-09-08T11:28:14.073Z,21.65
2018-09-08T11:30:42.970Z,21.42
2018-09-08T11:33:11.839Z,22.67
2018-09-08T11:35:40.687Z,23.35
2018-09-08T11:38:09.607Z,23.87
2018-09-08T11:40:38.549Z,24.95
2018-09-08T11:43:07.393Z,34.33
2018-09-08T11:45:36.401Z,26.87
2018-09-08T11:48:05.308Z,29.12
2018-09-08T11:50:34.631Z,25.65
2018-09-08T11:53:03.772Z,24.57
2018-09-08T11:55:32.663Z,25.52
2018-09-08T11:58:01.495Z,25.80
2018-09-08T12:00:30.353Z,22.32
2018-09-08T12:02:59.425Z,28.02
2018-09-08T12:05:28.367Z,22.77
2018-09-08T12:07:57.347Z,27.35
2018-09-08T12:10:26.271Z,32.17
2018-09-08T12:12:55.102Z,23.55
2018-09-08T12:15:23.980Z,26.17
2018-09-08T12:18:11.168Z,27.20
2018-09-08T12:20:40.069Z,22.77
2018-09-08T12:23:09.595Z,30.37
2018-09-08T12:25:38.428Z,30.30
2018-09-08T12:28:07.270Z,28.85
2018-09-08T12:30:36.354Z,33.65
2018-09-08T12:33:05.101Z,33.75
2018-09-08T12:35:34.011Z,30.62
2018-09-08T12:38:03.052Z,27.70
2018-09-08T12:40:31.967Z,26.35
2018-09-08T12:43:00.795Z,30.08
2018-09-08T12:45:29.646Z,24.67
2018-09-08T12:47:58.540Z,29.35
2018-09-08T12:50:27.355Z,25.43
2018-09-08T12:52:56.324Z,29.32
2018-09-08T12:55:25.156Z,23.10
2018-09-08T12:57:53.976Z,25.17
2018-09-08T13:00:23.125Z,27.48
2018-09-08T13:02:51.945Z,22.82
2018-09-08T13:05:20.772Z,27.02
2018-09-08T13:07:49.656Z,28.80
2018-09-08T13:10:19.268Z,24.90
2018-09-08T13:12:48.236Z,21.62
2018-09-08T13:15:17.129Z,26.73
2018-09-08T13:17:46.095Z,26.02
2018-09-08T13:20:15.221Z,29.98
2018-09-08T13:22:44.143Z,25.60
2018-09-08T13:25:14.187Z,27.40
2018-09-08T13:27:43.059Z,36.30
2018-09-08T13:30:11.915Z,39.08
2018-09-08T13:32:40.748Z,23.85
2018-09-08T13:35:09.617Z,25.57
2018-09-08T13:37:38.475Z,24.07
2018-09-08T13:40:07.289Z,32.55
2018-09-08T13:42:36.180Z,30.80
2018-09-08T13:45:05.092Z,30.48
2018-09-08T13:47:33.912Z,28.47
2018-09-08T13:50:02.801Z,27.17
2018-09-08T13:52:31.631Z,28.62
2018-09-08T13:55:00.428Z,26.45
2018-09-08T13:57:29.290Z,29.32
2018-09-08T13:59:58.102Z,29.27
2018-09-08T14:02:26.999Z,24.87
2018-09-08T14:04:55.920Z,30.70
2018-09-08T14:07:24.828Z,24.47
2018-09-08T14:09:53.694Z,30.82
2018-09-08T14:12:22.849Z,29.82
2018-09-08T14:14:51.760Z,38.63
2018-09-08T14:17:20.768Z,31.52
2018-09-08T14:19:49.669Z,35.52
2018-09-08T14:22:19.244Z,36.38
2018-09-08T14:24:48.250Z,38.00
2018-09-08T14:27:17.113Z,33.55
2018-09-08T14:29:46.046Z,30.57
2018-09-08T14:32:15.041Z,26.23
2018-09-08T14:34:44.007Z,34.83
2018-09-08T14:37:12.865Z,34.13
2018-09-08T14:39:41.729Z,36.93
2018-09-08T14:42:11.305Z,30.32
2018-09-08T14:44:40.180Z,28.02
2018-09-08T14:47:09.012Z,29.23
2018-09-08T14:49:37.925Z,32.00
2018-09-08T14:52:06.789Z,28.73
2018-09-08T14:54:35.615Z,29.63
2018-09-08T14:57:11.161Z,32.03
2018-09-08T14:59:40.001Z,28.45
2018-09-08T15:02:08.823Z,32.65
2018-09-08T15:04:37.777Z,27.32
2018-09-08T15:07:06.670Z,33.60
2018-09-08T15:09:35.625Z,33.65
2018-09-08T15:12:04.452Z,34.73
2018-09-08T15:14:33.360Z,28.52
2018-09-08T15:17:02.189Z,34.90
2018-09-08T15:19:31.024Z,31.07
2018-09-08T15:22:00.027Z,24.37
2018-09-08T15:24:29.049Z,35.03
2018-09-08T15:26:57.921Z,30.53
2018-09-08T15:29:26.890Z,26.95
2018-09-08T15:31:55.724Z,24.40
2018-09-08T15:34:24.564Z,26.83
2018-09-08T15:36:53.455Z,30.68
2018-09-08T15:39:22.324Z,21.20
2018-09-08T15:41:51.756Z,27.42
2018-09-08T15:44:20.684Z,24.98
2018-09-08T15:46:49.523Z,26.82
2018-09-08T15:49:18.567Z,25.45
2018-09-08T15:51:47.411Z,27.07
2018-09-08T15:54:16.269Z,21.82
2018-09-08T15:56:45.139Z,27.30
2018-09-08T15:59:13.975Z,28.62
2018-09-08T16:01:42.796Z,21.52
2018-09-08T16:04:11.658Z,22.00
2018-09-08T16:06:40.481Z,22.02
2018-09-08T16:09:09.332Z,22.97
2018-09-08T16:11:38.225Z,23.20
2018-09-08T16:14:07.032Z,24.60
2018-09-08T16:16:35.856Z,22.17
2018-09-08T16:19:04.741Z,21.47
2018-09-08T16:21:33.613Z,22.37
2018-09-08T16:24:02.478Z,24.27
2018-09-08T16:26:31.398Z,20.65
2018-09-08T16:29:00.257Z,25.10
2018-09-08T16:31:29.156Z,27.70
2018-09-08T16:33:58.036Z,25.50
2018-09-08T16:36:26.887Z,20.70
2018-09-08T16:38:55.725Z,22.22
2018-09-08T16:41:24.597Z,28.10
2018-09-08T16:43:53.416Z,24.00
2018-09-08T16:46:22.257Z,34.17
2018-09-08T16:48:51.625Z,32.05
2018-09-08T16:51:21.133Z,26.33
2018-09-08T16:53:54.204Z,28.40
2018-09-08T16:56:23.089Z,25.05
2018-09-08T16:58:51.912Z,25.57
2018-09-08T17:01:24.227Z,25.13
2018-09-08T17:03:56.248Z,26.20
2018-09-08T17:06:27.564Z,21.37
2018-09-08T17:08:59.133Z,25.80
2018-09-08T17:11:27.975Z,21.93
2018-09-08T17:13:56.959Z,27.50
2018-09-08T17:16:28.802Z,25.35
2018-09-08T17:19:01.073Z,25.97
2018-09-08T17:21:33.759Z,23.35
2018-09-08T17:24:02.686Z,23.90
2018-09-08T17:26:33.089Z,27.37
2018-09-08T17:29:06.011Z,23.10
2018-09-08T17:31:38.172Z,23.33
2018-09-08T17:34:07.226Z,25.88
2018-09-08T17:36:36.167Z,25.60
2018-09-08T17:39:07.432Z,22.30
2018-09-08T17:41:39.539Z,25.20
2018-09-08T17:44:08.650Z,26.63
2018-09-08T17:46:37.727Z,24.80
2018-09-08T17:49:06.735Z,24.03
2018-09-08T17:51:35.668Z,22.37
2018-09-08T17:54:04.577Z,23.63
2018-09-08T17:56:33.407Z,23.45
2018-09-08T17:59:02.456Z,24.60
2018-09-08T18:01:31.336Z,26.20
2018-09-08T18:04:00.753Z,23.45
2018-09-08T18:06:29.634Z,24.50
2018-09-08T18:08:58.627Z,21.30
2018-09-08T18:11:27.561Z,21.70
2018-09-08T18:13:56.517Z,19.67
2018-09-08T18:16:25.515Z,20.97
2018-09-08T18:18:54.432Z,21.70
2018-09-08T18:21:23.361Z,17.33
2018-09-08T18:23:52.321Z,21.97
2018-09-08T18:26:21.312Z,20.33
2018-09-08T18:28:50.246Z,20.77
2018-09-08T18:31:19.215Z,20.63
2018-09-08T18:33:48.047Z,20.47
2018-09-08T18:36:16.909Z,18.63
2018-09-08T18:38:45.932Z,18.67
2018-09-08T18:41:14.901Z,17.97
2018-09-08T18:43:44.639Z,16.43
2018-09-08T18:46:13.593Z,14.63
2018-09-08T18:48:42.484Z,14.67
2018-09-08T18:51:11.425Z,14.50
2018-09-08T18:53:40.546Z,14.87
2018-09-08T18:56:09.539Z,15.47
2018-09-08T18:58:38.551Z,17.90
2018-09-08T19:01:07.483Z,14.53
2018-09-08T19:03:36.432Z,19.80
2018-09-08T19:06:05.355Z,16.33
2018-09-08T19:09:06.061Z,17.07
2018-09-08T19:11:35.708Z,21.23
2018-09-08T19:14:04.560Z,24.07
2018-09-08T19:16:33.431Z,19.33
2018-09-08T19:19:02.284Z,25.17
2018-09-08T19:21:31.143Z,24.27
2018-09-08T19:24:05.211Z,22.50
2018-09-08T19:26:34.032Z,23.90
2018-09-08T19:29:08.072Z,27.90
2018-09-08T19:31:36.998Z,27.30
2018-09-08T19:34:05.773Z,29.80
2018-09-08T19:36:34.687Z,39.73
2018-09-08T19:39:03.879Z,47.40
2018-09-08T19:41:32.704Z,40.70
2018-09-08T19:44:01.548Z,38.87
2018-09-08T19:46:35.453Z,47.53
2018-09-08T19:49:04.339Z,45.87
2018-09-08T19:51:33.180Z,40.00
2018-09-08T19:54:01.996Z,56.60
2018-09-08T19:56:36.127Z,41.07
2018-09-08T19:59:05.279Z,44.43
2018-09-08T20:01:34.086Z,38.10
2018-09-08T20:04:02.972Z,40.23
2018-09-08T20:06:31.800Z,41.00
2018-09-08T20:09:00.623Z,40.57
2018-09-08T20:11:29.528Z,36.30
2018-09-08T20:13:58.373Z,33.00
2018-09-08T20:16:27.188Z,32.40
2018-09-08T20:18:56.068Z,34.33
2018-09-08T20:21:24.898Z,35.30
2018-09-08T20:23:53.799Z,36.97
2018-09-08T20:26:22.733Z,34.60
2018-09-08T20:28:51.683Z,34.63
2018-09-08T20:31:20.460Z,33.90
2018-09-08T20:33:49.426Z,34.07
2018-09-08T20:36:18.246Z,34.63
2018-09-08T20:38:47.099Z,33.03
2018-09-08T20:41:15.955Z,29.97
2018-09-08T20:43:44.821Z,24.23
2018-09-08T20:46:13.644Z,26.17
2018-09-08T20:48:42.570Z,25.03
2018-09-08T20:51:11.391Z,28.07
2018-09-08T20:53:40.188Z,25.27
2018-09-08T20:56:09.095Z,30.20
2018-09-08T20:58:37.944Z,35.87
2018-09-08T21:01:06.920Z,34.57
2018-09-08T21:03:35.766Z,31.73
2018-09-08T21:06:04.675Z,29.13
2018-09-08T21:08:36.573Z,30.13
2018-09-08T21:11:06.522Z,35.63
2018-09-08T21:13:35.511Z,35.93
2018-09-08T21:16:04.952Z,47.90
2018-09-08T21:18:35.217Z,40.00
2018-09-08T21:21:04.200Z,41.67
2018-09-08T21:23:33.214Z,64.50
2018-09-08T21:26:02.001Z,47.53
2018-09-08T21:28:30.827Z,62.93
2018-09-08T21:30:59.745Z,62.83
2018-09-08T21:33:28.563Z,62.33
2018-09-08T21:35:57.400Z,53.10
2018-09-08T21:38:26.273Z,53.57
2018-09-08T21:40:55.236Z,45.53
2018-09-08T21:43:24.064Z,54.87
2018-09-08T21:45:53.013Z,59.37
2018-09-08T21:48:21.904Z,44.43
2018-09-08T21:54:47.622Z,47.07
2018-09-08T21:59:26.987Z,40.00
2018-09-08T22:01:55.896Z,35.27
2018-09-08T22:04:24.733Z,52.80
2018-09-08T22:06:53.559Z,43.30
2018-09-08T22:09:22.406Z,49.60
2018-09-08T22:11:51.244Z,45.63
2018-09-08T22:14:20.295Z,52.23
2018-09-08T22:16:49.227Z,41.33
2018-09-08T22:19:18.148Z,30.10
2018-09-08T22:21:46.976Z,40.67
2018-09-08T22:24:15.896Z,40.20
2018-09-08T22:26:44.741Z,32.53
2018-09-08T22:29:13.571Z,31.40
2018-09-08T22:31:42.454Z,31.23
2018-09-08T22:34:11.261Z,29.57
2018-09-08T22:36:40.079Z,30.17
2018-09-08T22:39:09.428Z,30.80
2018-09-08T22:41:38.334Z,26.30
2018-09-08T22:44:07.196Z,25.00
2018-09-08T22:46:36.085Z,33.40
2018-09-08T22:49:04.913Z,29.70
2018-09-08T22:51:33.885Z,23.60
2018-09-08T22:54:02.902Z,25.57
2018-09-08T22:56:31.753Z,25.50
2018-09-08T22:59:00.654Z,28.93
2018-09-08T23:01:29.527Z,23.67
2018-09-08T23:03:58.348Z,26.07
2018-09-08T23:06:27.324Z,21.37
2018-09-08T23:08:56.176Z,23.87
2018-09-08T23:11:25.024Z,22.57
2018-09-08T23:13:53.846Z,22.80
2018-09-08T23:16:22.702Z,23.90
2018-09-08T23:18:51.504Z,22.47
2018-09-08T23:21:20.424Z,21.30
2018-09-08T23:23:49.296Z,24.67
2018-09-08T23:26:18.192Z,20.10
2018-09-08T23:28:47.010Z,23.83
2018-09-08T23:31:15.873Z,23.53
2018-09-08T23:33:44.717Z,21.50
2018-09-08T23:36:13.547Z,19.37
2018-09-08T23:38:42.416Z,18.60
2018-09-08T23:41:11.216Z,20.30
2018-09-08T23:43:40.074Z,20.13
2018-09-08T23:46:08.992Z,21.57
2018-09-08T23:48:37.807Z,19.07
2018-09-08T23:51:06.673Z,20.00
2018-09-08T23:53:35.531Z,17.10
2018-09-08T23:56:04.358Z,16.17
2018-09-08T23:58:33.201Z,17.07
